Williams Lake Airport
CYWL : now visible

Airfield :











YOU CAN JOIN US ON...

 
LOGIN :

Register | Disclaimer

   EN    FR    IT 

 









Legend :    VFR   Marginal VFR   IFR   Intensive IFR   Very Intensive IFR
Visi :
Ceiling :
>= 8 km
>= 3000ft
5 to 8 km
1000 to 3000 ft
1500m to 5 km
500 to 1000 ft
800 to 1500m
200 to 500 ft
< 800m
< 200 ft
Symbols :   Thunderstorms  Fog  Heavy snow  Heavy precipitations  Wind > 20 kt






- Airport Elevation : 3085 ft
- IATA code : YWL


CYWL - Williams Lake

CURRENT METAR :
  • 280424Z 24005KT 2SM -SN OVC005 00/M00 A2973 RMK SN4SC4 SLP103

EXPIRED METARs :
  • 280400Z 28011G18KT 8SM OVC032 01/M00 A2971 RMK SC8 PRESRR SLP095
  • 280300Z 14009KT 15SM OVC068 03/M02 A2966 RMK AC8 SLP072
  • 280200Z 12017G27KT 15SM BKN084 BKN230 04/M02 A2964 RMK AC5CI1 SLP066

TAF TAF CYWL
Valid from the 28 at 01:00 until the 28 at 13:00 UTC


280048Z 2801/2813 12012G22KT P6SM FEW060 BKN120
FM280300 12010G20KT P6SM SCT030 BKN060 BKN120
TEMPO 2803/2812 5SM -RASN BR BKN030
FM281200 VRB03KT P6SM SCT060 RMK NXT FCST BY 280700Z
CZVR FIR / North America



MET'MAP, your aeronautical weather chart ! - Copyright ORBIFLY December 2007 - Disclaimer

ORBIFLY MET'MAP TEAM :

Programming & Development : Alexandra Zaïnal
Concept & original design : Baudouin d'Aumeries
Assistance for programming : Marc-Olivier Méhu
Technical & hardware support : Manuel Goepfert

Contact : metmap@orbifly.com




SOURCES & CREDITS :

   NOAA       Earth
Advisory